Time;durP1;ratioP1;P1;durP2;ratioP2;P2;SDS_P1;SDS_P2;PMS_P1;PMS_P2;Temp;Humidity;BMP_temperature;BMP_pressure;BME280_temperature;BME280_humidity;BME280_pressure;Samples;Min_cycle;Max_cycle;Signal;HPM_P1;HPM_P2
2023/05/23 00:00:27;;;;;;;0.57;0.50;;;12.30;99.90;;;;;;5112484;28;19927;-77
2023/05/23 00:02:53;;;;;;;4.47;0.60;;;14.00;99.90;;;;;;5112607;28;20123;-78
2023/05/23 00:05:19;;;;;;;;;;;13.10;99.90;;;;;;5112738;28;20105;-71
2023/05/23 00:07:44;;;;;;;0.73;0.70;;;13.50;99.90;;;;;;5112091;28;19969;-75
2023/05/23 00:10:11;;;;;;;0.90;0.90;;;13.60;99.90;;;;;;5112414;28;20100;-78
2023/05/23 00:12:38;;;;;;;2.28;0.95;;;14.10;99.90;;;;;;5112473;28;20147;-69
2023/05/23 00:15:08;;;;;;;0.50;0.50;;;13.90;99.90;;;;;;5094110;28;20055;-73
2023/05/23 00:17:38;;;;;;;0.47;0.47;;;12.10;99.90;;;;;;5112067;28;20499;-75
2023/05/23 00:20:05;;;;;;;2.95;1.38;;;13.50;99.90;;;;;;5112304;28;20058;-71
2023/05/23 00:22:30;;;;;;;0.40;0.40;;;14.10;99.90;;;;;;5112189;28;20123;-73
2023/05/23 00:24:56;;;;;;;1.55;1.45;;;14.40;99.90;;;;;;5094411;28;20422;-71
2023/05/23 00:27:22;;;;;;;;;;;13.80;99.90;;;;;;5112542;28;20055;-75
2023/05/23 00:29:48;;;;;;;3.13;0.73;;;13.90;99.90;;;;;;5112269;28;20022;-79
2023/05/23 00:32:14;;;;;;;1.00;1.00;;;13.80;99.90;;;;;;5112202;28;20052;-71
2023/05/23 00:34:39;;;;;;;0.55;0.55;;;12.30;99.90;;;;;;5094115;28;20368;-71
2023/05/23 00:37:05;;;;;;;0.30;0.30;;;13.80;99.90;;;;;;5112062;28;20047;-74
2023/05/23 00:39:31;;;;;;;0.80;0.80;;;13.40;99.90;;;;;;5112335;28;20483;-74
2023/05/23 00:41:56;;;;;;;;;;;13.10;99.90;;;;;;5112648;28;20048;-71
2023/05/23 00:44:22;;;;;;;1.15;0.75;;;11.80;99.90;;;;;;5112117;28;20268;-76
2023/05/23 00:46:55;;;;;;;1.65;0.75;;;11.80;99.90;;;;;;5112044;28;20040;-70
2023/05/23 00:49:21;;;;;;;0.88;0.88;;;13.50;99.90;;;;;;5116216;28;20043;-75
2023/05/23 00:51:48;;;;;;;;;;;11.70;99.90;;;;;;5098854;28;20059;-76
2023/05/23 00:54:17;;;;;;;1.70;1.55;;;11.70;99.90;;;;;;5116416;28;20014;-78
2023/05/23 00:56:43;;;;;;;0.65;0.65;;;11.80;99.90;;;;;;5098168;28;20043;-74
2023/05/23 00:59:08;;;;;;;3.33;1.10;;;12.10;99.90;;;;;;5116135;28;20101;-77
2023/05/23 01:01:35;;;;;;;0.47;0.47;;;13.20;99.90;;;;;;5115977;28;20086;-77
2023/05/23 01:04:03;;;;;;;5.35;3.17;;;13.40;99.90;;;;;;5115824;28;20070;-74
2023/05/23 01:06:29;;;;;;;1.40;1.27;;;11.60;99.90;;;;;;5097833;28;20059;-80
2023/05/23 01:08:55;;;;;;;5.90;1.88;;;11.50;99.90;;;;;;5115857;28;20049;-78
2023/05/23 01:11:57;;;;;;;2.42;1.02;;;13.20;99.90;;;;;;5115814;28;20491;-74
2023/05/23 01:14:42;;;;;;;0.40;0.40;;;12.20;99.90;;;;;;5097723;28;20101;-79
2023/05/23 01:17:16;;;;;;;0.88;0.88;;;13.40;99.90;;;;;;5097833;28;20056;-71
2023/05/23 01:20:00;;;;;;;0.90;0.85;;;12.40;99.90;;;;;;5115755;28;20561;-72
2023/05/23 01:22:40;;;;;;;3.28;1.98;;;13.20;99.90;;;;;;5115537;28;20556;-78
2023/05/23 01:25:27;;;;;;;1.63;1.33;;;13.20;99.90;;;;;;5115470;28;20398;-75
2023/05/23 01:28:03;;;;;;;0.90;0.90;;;13.30;99.90;;;;;;5115432;28;20058;-77
2023/05/23 01:30:33;;;;;;;0.90;0.90;;;12.10;99.90;;;;;;5115592;28;20411;-74
2023/05/23 01:33:00;;;;;;;2.33;1.60;;;12.50;99.90;;;;;;5115223;28;20488;-67
2023/05/23 01:35:26;;;;;;;0.98;0.95;;;12.10;99.90;;;;;;5115201;28;20047;-77
2023/05/23 01:37:53;;;;;;;1.13;1.10;;;11.80;99.90;;;;;;5115361;28;20075;-78
2023/05/23 01:40:20;;;;;;;0.65;0.65;;;11.20;99.90;;;;;;5115239;28;20126;-76
2023/05/23 01:42:46;;;;;;;1.52;1.42;;;13.10;99.90;;;;;;5097168;28;20050;-76
2023/05/23 01:45:12;;;;;;;;;;;11.10;99.90;;;;;;5115560;28;20078;-75
2023/05/23 01:47:40;;;;;;;3.92;0.98;;;11.90;99.90;;;;;;5115124;28;20391;-78
2023/05/23 01:50:07;;;;;;;2.00;1.02;;;11.50;99.90;;;;;;5096792;28;20051;-73
2023/05/23 01:52:34;;;;;;;0.60;0.60;;;13.30;99.90;;;;;;5115191;28;20092;-76
2023/05/23 01:55:00;;;;;;;1.70;1.40;;;11.40;99.90;;;;;;5115101;28;20100;-74
2023/05/23 01:57:29;;;;;;;0.70;0.70;;;12.70;99.90;;;;;;5114907;28;20043;-79
2023/05/23 01:59:55;;;;;;;1.77;1.45;;;12.90;99.90;;;;;;5114308;28;20411;-75
2023/05/23 02:02:21;;;;;;;1.00;0.63;;;12.40;99.90;;;;;;5114792;28;20054;-77
2023/05/23 02:04:48;;;;;;;0.70;0.70;;;12.90;99.90;;;;;;5114837;28;20048;-77
2023/05/23 02:07:14;;;;;;;0.88;0.80;;;12.50;99.90;;;;;;5114646;28;20093;-76
2023/05/23 02:09:40;;;;;;;0.70;0.70;;;12.40;99.90;;;;;;5096613;28;20048;-72
2023/05/23 02:12:06;;;;;;;1.20;1.20;;;11.80;99.90;;;;;;5114563;28;20399;-78
2023/05/23 02:14:32;;;;;;;0.70;0.70;;;13.00;99.90;;;;;;5079632;28;20054;-74
2023/05/23 02:16:59;;;;;;;;;;;12.10;99.90;;;;;;5114870;28;20524;-77
2023/05/23 02:19:25;;;;;;;3.75;2.45;;;12.80;99.90;;;;;;5114667;28;19926;-78
2023/05/23 02:21:51;;;;;;;4.00;1.17;;;12.90;99.90;;;;;;5096496;28;20510;-73
2023/05/23 02:24:17;;;;;;;0.63;0.63;;;12.30;99.90;;;;;;5114649;28;20047;-79
2023/05/23 02:26:42;;;;;;;6.97;0.98;;;12.50;99.90;;;;;;5095974;28;20145;-79
2023/05/23 02:29:08;;;;;;;1.50;1.42;;;11.30;99.90;;;;;;5114221;28;20121;-74
2023/05/23 02:31:35;;;;;;;1.02;0.95;;;13.20;99.90;;;;;;5114136;28;20099;-79
2023/05/23 02:34:00;;;;;;;1.80;1.30;;;11.70;99.90;;;;;;5114107;28;20448;-73
2023/05/23 02:36:26;;;;;;;1.00;1.00;;;11.50;99.90;;;;;;5114281;28;20043;-75
2023/05/23 02:38:52;;;;;;;0.95;0.90;;;11.80;99.90;;;;;;5096093;28;20478;-70
2023/05/23 02:41:17;;;;;;;1.27;1.15;;;13.00;99.90;;;;;;5113941;28;20063;-73
2023/05/23 02:43:45;;;;;;;2.83;0.90;;;11.50;99.90;;;;;;5096071;28;20130;-76
2023/05/23 02:46:12;;;;;;;2.40;0.38;;;12.80;99.90;;;;;;5124999;27;20074;-80
2023/05/23 02:48:38;;;;;;;2.38;1.90;;;11.70;99.90;;;;;;5134641;27;20047;-72
2023/05/23 02:51:03;;;;;;;0.47;0.47;;;12.60;99.90;;;;;;5116415;27;20055;-76
2023/05/23 02:53:29;;;;;;;0.73;0.73;;;12.80;99.90;;;;;;5099365;27;20417;-75
2023/05/23 02:55:55;;;;;;;5.32;2.33;;;11.30;99.90;;;;;;5116123;27;20054;-80
2023/05/23 02:58:20;;;;;;;6.60;0.77;;;11.70;99.90;;;;;;5134255;27;20532;-79
2023/05/23 03:00:46;;;;;;;0.73;0.73;;;13.80;99.90;;;;;;5115899;27;20086;-75
2023/05/23 03:03:12;;;;;;;0.40;0.40;;;11.70;99.90;;;;;;5134230;27;20051;-73
2023/05/23 03:05:37;;;;;;;0.75;0.75;;;11.90;99.90;;;;;;5134112;27;20439;-70
2023/05/23 03:08:04;;;;;;;0.95;0.95;;;11.10;99.90;;;;;;5115974;27;20055;-75
2023/05/23 03:10:29;;;;;;;3.15;1.10;;;12.40;99.90;;;;;;5098035;27;20051;-70
2023/05/23 03:12:55;;;;;;;0.77;0.77;;;11.50;99.90;;;;;;5133972;27;20049;-75
2023/05/23 03:15:21;;;;;;;0.95;0.90;;;11.80;99.90;;;;;;5133883;27;20043;-76
2023/05/23 03:17:46;;;;;;;0.30;0.30;;;12.20;99.90;;;;;;5133734;27;20122;-77
2023/05/23 03:20:13;;;;;;;0.45;0.45;;;11.40;99.90;;;;;;5133627;27;20055;-74
2023/05/23 03:22:42;;;;;;;1.30;1.25;;;12.30;99.90;;;;;;5133882;27;20059;-69
2023/05/23 03:25:08;;;;;;;1.15;0.75;;;10.90;99.90;;;;;;5133710;27;20051;-77
2023/05/23 03:27:34;;;;;;;;;;;12.80;99.90;;;;;;5115331;27;20059;-73
2023/05/23 03:29:59;;;;;;;0.70;0.60;;;11.50;99.90;;;;;;5133496;27;19919;-72
2023/05/23 03:32:25;;;;;;;0.45;0.45;;;11.50;99.90;;;;;;5133724;27;20047;-74
2023/05/23 03:34:51;;;;;;;0.95;0.95;;;11.80;99.90;;;;;;5133563;27;20103;-76
2023/05/23 03:37:16;;;;;;;0.30;0.30;;;11.80;99.90;;;;;;5133519;27;20491;-69
2023/05/23 03:39:42;;;;;;;11.75;0.85;;;10.90;99.90;;;;;;5133452;27;20050;-73
2023/05/23 03:42:08;;;;;;;0.82;0.73;;;11.40;99.90;;;;;;5115185;27;20483;-72
2023/05/23 03:44:33;;;;;;;0.38;0.38;;;12.00;99.90;;;;;;5115213;27;20063;-69
2023/05/23 03:46:59;;;;;;;0.40;0.40;;;11.00;99.90;;;;;;5133189;27;20042;-75
2023/05/23 03:49:25;;;;;;;0.75;0.75;;;11.00;99.90;;;;;;5115025;27;20043;-72
2023/05/23 03:51:51;;;;;;;;;;;11.50;99.90;;;;;;5115522;27;20043;-80
2023/05/23 03:54:17;;;;;;;3.40;1.10;;;12.20;99.90;;;;;;5133282;27;20010;-73
2023/05/23 03:56:43;;;;;;;0.60;0.40;;;12.60;99.90;;;;;;5133164;27;20479;-77
2023/05/23 03:59:08;;;;;;;0.38;0.38;;;12.80;99.90;;;;;;5114865;27;20093;-74
2023/05/23 04:01:34;;;;;;;0.40;0.40;;;11.70;99.90;;;;;;5133268;27;20471;-75
2023/05/23 04:04:00;;;;;;;0.32;0.32;;;12.80;99.90;;;;;;5098088;27;20409;-72
2023/05/23 04:06:28;;;;;;;;;;;12.50;99.90;;;;;;5133421;27;20047;-70
2023/05/23 04:08:54;;;;;;;0.40;0.40;;;11.00;99.90;;;;;;5133043;27;19927;-76
2023/05/23 04:11:21;;;;;;;0.65;0.65;;;11.40;99.90;;;;;;5133013;27;20057;-70
2023/05/23 04:13:46;;;;;;;0.77;0.73;;;10.80;99.90;;;;;;5132829;27;20050;-75
2023/05/23 04:16:12;;;;;;;1.70;1.13;;;11.40;99.90;;;;;;5133098;27;20453;-73
2023/05/23 04:18:38;;;;;;;2.63;0.85;;;12.40;99.90;;;;;;5132983;27;20051;-76
2023/05/23 04:21:04;;;;;;;0.80;0.73;;;12.60;99.90;;;;;;5114252;27;20086;-73
2023/05/23 04:23:30;;;;;;;;;;;12.50;99.90;;;;;;5115107;28;20156;-74
2023/05/23 04:25:56;;;;;;;1.10;1.08;;;10.90;99.90;;;;;;5132553;27;20010;-80
2023/05/23 04:28:22;;;;;;;13.30;1.35;;;10.40;99.90;;;;;;5132342;28;20499;-75
2023/05/23 04:30:52;;;;;;;;;;;12.00;99.90;;;;;;5133018;28;20047;-69
2023/05/23 04:33:18;;;;;;;0.63;0.63;;;11.30;99.90;;;;;;5132848;28;19941;-73
2023/05/23 04:35:44;;;;;;;;;;;10.40;99.90;;;;;;5133243;28;20047;-74
2023/05/23 04:38:09;;;;;;;0.45;0.45;;;11.90;99.90;;;;;;5132813;28;19930;-71
2023/05/23 04:40:35;;;;;;;0.70;0.70;;;11.40;99.90;;;;;;5097871;28;20108;-77
2023/05/23 04:43:01;;;;;;;1.27;0.88;;;10.30;99.90;;;;;;5132480;28;20087;-76
2023/05/23 04:45:27;;;;;;;0.70;0.70;;;11.50;99.90;;;;;;5132841;28;20046;-74
2023/05/23 04:47:55;;;;;;;;;;;10.90;99.90;;;;;;5133106;28;20047;-78
2023/05/23 04:50:21;;;;;;;0.70;0.70;;;10.40;99.90;;;;;;5114303;28;20424;-76
2023/05/23 04:52:47;;;;;;;0.93;0.88;;;11.50;99.90;;;;;;5114268;28;20039;-77
2023/05/23 04:55:13;;;;;;;16.67;6.03;;;11.80;99.90;;;;;;5114345;28;20055;-74
2023/05/23 04:57:39;;;;;;;1.00;0.70;;;11.60;99.90;;;;;;5132397;28;20120;-71
2023/05/23 05:00:11;;;;;;;2.20;1.80;;;10.70;99.90;;;;;;5132594;28;20441;-77
2023/05/23 05:02:38;;;;;;;0.60;0.60;;;11.80;99.90;;;;;;5132469;28;20035;-78
2023/05/23 05:05:04;;;;;;;1.38;0.75;;;11.40;99.90;;;;;;5132362;28;20452;-73
2023/05/23 05:07:30;;;;;;;0.55;0.55;;;10.80;99.90;;;;;;5132280;28;20036;-81
2023/05/23 05:09:56;;;;;;;1.02;1.02;;;11.20;99.90;;;;;;5132325;28;20047;-77
2023/05/23 05:12:21;;;;;;;0.40;0.40;;;11.40;99.90;;;;;;5132333;28;20127;-72
2023/05/23 05:14:47;;;;;;;0.75;0.75;;;11.10;99.90;;;;;;5114023;28;20455;-78
2023/05/23 05:17:13;;;;;;;3.75;1.25;;;10.70;99.90;;;;;;5114002;28;20043;-74
2023/05/23 05:19:38;;;;;;;1.17;1.08;;;10.90;99.90;;;;;;5132272;28;20051;-72
2023/05/23 05:22:04;;;;;;;0.65;0.65;;;10.40;99.90;;;;;;5132250;28;20134;-72
2023/05/23 05:24:31;;;;;;;0.30;0.30;;;11.10;99.90;;;;;;5132188;28;20043;-76
2023/05/23 05:26:57;;;;;;;3.67;1.30;;;10.90;99.90;;;;;;5113559;28;20098;-70
2023/05/23 05:29:23;;;;;;;0.95;0.77;;;11.10;99.90;;;;;;5132254;28;20402;-72
2023/05/23 05:31:48;;;;;;;0.35;0.35;;;12.20;99.90;;;;;;5114080;28;20083;-77
2023/05/23 05:34:14;;;;;;;0.38;0.38;;;11.00;99.90;;;;;;5115914;27;20050;-81
2023/05/23 05:36:45;;;;;;;2.45;0.50;;;10.70;99.90;;;;;;5136000;27;20186;-71
2023/05/23 05:39:12;;;;;;;0.57;0.57;;;11.30;99.90;;;;;;5117375;27;20463;-71
2023/05/23 05:41:39;;;;;;;0.40;0.40;;;10.80;99.90;;;;;;5135936;27;20047;-73
2023/05/23 05:44:05;;;;;;;0.50;0.50;;;11.70;99.90;;;;;;5100591;27;20100;-81
2023/05/23 05:46:31;;;;;;;;;;;11.10;99.90;;;;;;5136136;27;20129;-76
2023/05/23 05:48:56;;;;;;;6.72;1.00;;;11.20;99.90;;;;;;5135730;27;20353;-72
2023/05/23 05:51:22;;;;;;;0.25;0.25;;;10.60;99.90;;;;;;5135566;27;20047;-74
2023/05/23 05:53:48;;;;;;;1.02;0.93;;;10.90;99.90;;;;;;5135425;27;20043;-79
2023/05/23 05:56:14;;;;;;;;;;;11.30;99.90;;;;;;5135747;27;20130;-74
2023/05/23 05:58:40;;;;;;;0.20;0.20;;;11.00;99.90;;;;;;5117381;27;19959;-72
2023/05/23 06:01:05;;;;;;;0.52;0.50;;;10.60;99.90;;;;;;5117286;27;20091;-71
2023/05/23 06:03:32;;;;;;;1.05;0.82;;;10.60;99.90;;;;;;5135338;27;20188;-71
2023/05/23 06:05:58;;;;;;;17.75;1.52;;;11.20;99.90;;;;;;5135210;27;20402;-71
2023/05/23 06:08:24;;;;;;;0.90;0.60;;;10.70;99.90;;;;;;5117612;27;20100;-77
2023/05/23 06:10:50;;;;;;;0.30;0.30;;;11.20;99.90;;;;;;5106356;27;20047;-78
2023/05/23 06:13:16;;;;;;;;;;;10.90;99.90;;;;;;5119771;27;20130;-71
2023/05/23 06:15:42;;;;;;;0.20;0.20;;;11.20;99.90;;;;;;5113860;28;20010;-72
2023/05/23 06:18:08;;;;;;;0.60;0.60;;;11.60;99.90;;;;;;5126204;27;20043;-73
2023/05/23 06:20:33;;;;;;;1.27;0.47;;;11.10;99.90;;;;;;5116332;27;20058;-76
2023/05/23 06:23:00;;;;;;;1.50;1.05;;;11.40;99.90;;;;;;5121562;27;20046;-72
2023/05/23 06:25:26;;;;;;;1.90;1.17;;;11.00;99.90;;;;;;5095520;28;20055;-73
2023/05/23 06:27:52;;;;;;;1.67;0.65;;;11.00;99.90;;;;;;5114013;27;20051;-70
2023/05/23 06:30:18;;;;;;;0.20;0.20;;;11.70;99.90;;;;;;5113700;28;20131;-67
2023/05/23 06:32:43;;;;;;;0.57;0.57;;;11.50;99.90;;;;;;5114098;27;20062;-69
2023/05/23 06:35:09;;;;;;;0.65;0.63;;;11.50;99.90;;;;;;5113875;28;20047;-72
2023/05/23 06:37:35;;;;;;;0.20;0.20;;;11.90;99.90;;;;;;5113068;27;20044;-72
2023/05/23 06:40:00;;;;;;;0.38;0.38;;;11.70;99.90;;;;;;5113753;28;20047;-74
2023/05/23 06:42:26;;;;;;;0.20;0.20;;;11.40;99.90;;;;;;5113995;28;20151;-75
2023/05/23 06:44:52;;;;;;;0.68;0.68;;;11.50;99.90;;;;;;5113510;28;20047;-72
2023/05/23 06:47:17;;;;;;;0.70;0.70;;;11.70;99.90;;;;;;5095421;28;20472;-74
2023/05/23 06:49:44;;;;;;;0.73;0.73;;;11.50;99.90;;;;;;5113564;28;20086;-75
2023/05/23 06:52:10;;;;;;;0.50;0.50;;;11.60;99.90;;;;;;5094615;27;20372;-70
2023/05/23 06:54:35;;;;;;;4.85;0.75;;;11.90;99.90;;;;;;5113332;28;20051;-72
2023/05/23 06:57:01;;;;;;;0.95;0.90;;;11.80;99.90;;;;;;5078791;28;20047;-75
2023/05/23 06:59:27;;;;;;;0.30;0.30;;;11.50;99.90;;;;;;5113070;28;20058;-73
2023/05/23 07:01:52;;;;;;;4.10;0.95;;;11.70;99.90;;;;;;5113457;28;20572;-78
2023/05/23 07:04:18;;;;;;;1.10;0.30;;;11.40;99.90;;;;;;5095350;28;20052;-73
2023/05/23 07:06:44;;;;;;;0.40;0.40;;;11.70;99.90;;;;;;5112400;28;20058;-71
2023/05/23 07:09:10;;;;;;;0.28;0.28;;;11.70;99.90;;;;;;5113171;28;20518;-71
2023/05/23 07:11:38;;;;;;;3.10;0.77;;;11.60;99.90;;;;;;5078491;28;20054;-68
2023/05/23 07:14:04;;;;;;;0.75;0.75;;;11.70;99.90;;;;;;5112709;28;20051;-67
2023/05/23 07:16:30;;;;;;;0.30;0.30;;;12.10;99.90;;;;;;5113165;28;20113;-71
2023/05/23 07:18:56;;;;;;;0.35;0.35;;;11.90;99.90;;;;;;5113062;28;20068;-70
2023/05/23 07:21:21;;;;;;;1.58;0.47;;;12.20;99.90;;;;;;5094307;28;20047;-72
2023/05/23 07:23:47;;;;;;;0.90;0.40;;;12.10;99.90;;;;;;5094489;28;20054;-72
2023/05/23 07:26:13;;;;;;;0.30;0.30;;;12.20;99.90;;;;;;5094729;28;20127;-73
2023/05/23 07:28:39;;;;;;;1.42;0.77;;;11.80;99.90;;;;;;5112462;28;20062;-73
2023/05/23 07:31:04;;;;;;;4.15;0.95;;;11.90;99.90;;;;;;5112921;28;20044;-72
2023/05/23 07:33:33;;;;;;;8.82;0.65;;;12.40;99.90;;;;;;5112789;27;20044;-75
2023/05/23 07:35:59;;;;;;;2.97;1.33;;;11.90;99.90;;;;;;5095862;27;20042;-74
2023/05/23 07:38:25;;;;;;;0.32;0.32;;;11.90;99.90;;;;;;5113254;27;20563;-71
2023/05/23 07:40:51;;;;;;;;;;;11.70;99.90;;;;;;5131981;27;20490;-71
2023/05/23 07:43:17;;;;;;;0.40;0.40;;;12.20;99.90;;;;;;5113756;27;19929;-69
2023/05/23 07:45:42;;;;;;;17.98;0.65;;;12.00;99.90;;;;;;5133304;27;20042;-69
2023/05/23 07:48:08;;;;;;;0.55;0.47;;;12.30;99.90;;;;;;5133332;27;20078;-68
2023/05/23 07:50:34;;;;;;;0.82;0.80;;;12.00;99.90;;;;;;5133174;27;20513;-70
2023/05/23 07:52:59;;;;;;;1.42;0.57;;;12.20;99.90;;;;;;5133116;27;20051;-74
2023/05/23 07:55:25;;;;;;;0.73;0.73;;;12.40;99.90;;;;;;5133298;27;20043;-69
2023/05/23 07:57:53;;;;;;;0.30;0.30;;;12.20;99.90;;;;;;5132803;27;20108;-71
2023/05/23 08:00:19;;;;;;;8.20;3.30;;;12.40;99.90;;;;;;5133081;27;20058;-73
2023/05/23 08:02:45;;;;;;;0.20;0.20;;;12.50;99.90;;;;;;5132982;27;20047;-66
2023/05/23 08:05:11;;;;;;;0.60;0.60;;;12.30;99.90;;;;;;5114552;27;20552;-69
2023/05/23 08:07:36;;;;;;;0.63;0.50;;;12.70;99.90;;;;;;5132762;27;20071;-70
2023/05/23 08:10:02;;;;;;;0.28;0.25;;;12.50;99.90;;;;;;5133068;27;20406;-73
2023/05/23 08:12:28;;;;;;;3.55;0.65;;;12.80;99.90;;;;;;5133036;27;20176;-70
2023/05/23 08:14:53;;;;;;;0.75;0.75;;;12.70;99.90;;;;;;5132926;27;20134;-71
2023/05/23 08:17:19;;;;;;;10.98;0.47;;;12.40;99.90;;;;;;5132944;27;20050;-70
2023/05/23 08:19:45;;;;;;;1.17;1.15;;;12.50;99.90;;;;;;5118491;27;20058;-72
2023/05/23 08:22:11;;;;;;;0.28;0.28;;;12.70;99.90;;;;;;5132309;27;20043;-75
2023/05/23 08:24:37;;;;;;;0.35;0.35;;;12.80;99.90;;;;;;5116626;28;20043;-70
2023/05/23 08:27:03;;;;;;;0.20;0.20;;;12.60;99.90;;;;;;5093587;28;20062;-69
2023/05/23 08:29:28;;;;;;;0.20;0.20;;;12.40;99.90;;;;;;5112184;28;20047;-69
2023/05/23 08:31:54;;;;;;;0.55;0.55;;;12.70;99.90;;;;;;5111935;28;20570;-75
2023/05/23 08:34:20;;;;;;;1.08;0.20;;;12.70;99.90;;;;;;5110514;28;20082;-68
2023/05/23 08:36:45;;;;;;;0.25;0.25;;;12.60;99.90;;;;;;5093530;28;20137;-71
2023/05/23 08:39:11;;;;;;;2.40;2.20;;;12.60;99.90;;;;;;5112012;28;20086;-73
2023/05/23 08:41:38;;;;;;;;;;;12.70;99.90;;;;;;5109159;28;20503;-69
2023/05/23 08:44:03;;;;;;;0.63;0.63;;;12.50;99.90;;;;;;5104106;28;19931;-69
2023/05/23 08:46:31;;;;;;;2.97;0.55;;;12.50;99.90;;;;;;5111600;28;20063;-64
2023/05/23 08:48:59;;;;;;;0.85;0.85;;;12.60;99.90;;;;;;5111594;28;20049;-67
2023/05/23 08:51:26;;;;;;;0.38;0.38;;;12.70;99.90;;;;;;5128186;28;20049;-66
2023/05/23 08:53:55;;;;;;;0.45;0.45;;;12.80;99.90;;;;;;5132339;28;20441;-65
2023/05/23 08:56:21;;;;;;;0.88;0.68;;;12.70;99.90;;;;;;5131933;28;20118;-72
2023/05/23 08:58:46;;;;;;;;;;;12.80;99.90;;;;;;5113815;28;20059;-69
2023/05/23 09:01:13;;;;;;;0.70;0.70;;;12.80;99.90;;;;;;5131779;28;19923;-67
2023/05/23 09:03:41;;;;;;;8.02;1.85;;;12.80;99.90;;;;;;5131975;28;20129;-66
2023/05/23 09:06:07;;;;;;;1.15;0.95;;;13.00;99.90;;;;;;5131847;28;20470;-67
2023/05/23 09:08:33;;;;;;;2.30;1.15;;;13.00;99.90;;;;;;5133011;27;20086;-73
2023/05/23 09:11:01;;;;;;;0.52;0.52;;;13.20;99.90;;;;;;5135879;27;20144;-68
2023/05/23 09:13:31;;;;;;;0.30;0.25;;;12.90;99.90;;;;;;5135587;27;20502;-77
2023/05/23 09:16:08;;;;;;;0.63;0.63;;;13.10;99.90;;;;;;5135619;27;20078;-68
2023/05/23 09:18:34;;;;;;;1.48;0.63;;;13.00;99.90;;;;;;5135803;27;20062;-67
2023/05/23 09:21:01;;;;;;;0.85;0.47;;;13.00;99.90;;;;;;5135764;27;20142;-72
2023/05/23 09:23:30;;;;;;;4.55;3.13;;;13.30;99.90;;;;;;5135772;27;20043;-71
2023/05/23 09:26:00;;;;;;;0.30;0.30;;;12.70;99.90;;;;;;5135477;27;20062;-74
2023/05/23 09:28:26;;;;;;;1.05;1.05;;;12.80;99.90;;;;;;5134108;27;20747;-71
2023/05/23 09:31:07;;;;;;;7.38;0.47;;;12.90;99.90;;;;;;5115329;28;20134;-78
2023/05/23 09:33:48;;;;;;;4.30;1.98;;;13.00;99.90;;;;;;5097408;28;20101;-74
2023/05/23 09:36:15;;;;;;;0.30;0.30;;;13.10;99.90;;;;;;5115459;28;20512;-70
2023/05/23 09:38:43;;;;;;;0.43;0.43;;;13.30;99.90;;;;;;5096637;28;20506;-71
2023/05/23 09:41:12;;;;;;;0.88;0.60;;;13.10;99.90;;;;;;5114976;28;20137;-73
2023/05/23 09:43:39;;;;;;;21.63;1.27;;;13.30;99.90;;;;;;5109602;28;20089;-74
2023/05/23 09:46:12;;;;;;;2.35;0.73;;;13.40;99.90;;;;;;5119185;27;20043;-72
2023/05/23 09:48:38;;;;;;;0.20;0.20;;;13.00;99.90;;;;;;5114903;28;20072;-79
2023/05/23 09:51:06;;;;;;;2.63;1.23;;;13.20;99.90;;;;;;5100107;27;20079;-64
2023/05/23 09:53:32;;;;;;;5.70;0.40;;;13.00;99.90;;;;;;5135352;27;20054;-72
2023/05/23 09:56:00;;;;;;;0.47;0.47;;;13.10;99.90;;;;;;5116747;27;20487;-77
2023/05/23 09:58:31;;;;;;;11.68;3.10;;;13.40;99.90;;;;;;5135445;27;20051;-71
2023/05/23 10:01:02;;;;;;;0.50;0.45;;;13.50;99.90;;;;;;5116781;27;20087;-70
2023/05/23 10:03:34;;;;;;;1.45;0.90;;;13.50;99.90;;;;;;5135248;27;20506;-72
2023/05/23 10:06:25;;;;;;;1.77;0.85;;;13.20;99.90;;;;;;5135186;27;20053;-73
2023/05/23 10:09:03;;;;;;;2.65;0.38;;;12.80;99.90;;;;;;5131646;27;20047;-72
2023/05/23 10:11:33;;;;;;;4.40;0.88;;;13.10;99.90;;;;;;5102598;28;20048;-75
2023/05/23 10:14:08;;;;;;;0.28;0.28;;;13.20;99.90;;;;;;5096289;28;20059;-72
2023/05/23 10:16:46;;;;;;;0.82;0.63;;;13.20;99.90;;;;;;5096590;28;20129;-75
2023/05/23 10:19:35;;;;;;;0.40;0.40;;;13.10;99.90;;;;;;5113894;28;20075;-74
2023/05/23 10:22:07;;;;;;;1.25;0.68;;;13.10;99.90;;;;;;5096819;28;20043;-73
2023/05/23 10:24:35;;;;;;;0.93;0.50;;;13.50;99.90;;;;;;5096075;28;20058;-76
2023/05/23 10:27:02;;;;;;;1.60;0.93;;;13.00;99.90;;;;;;5113625;28;20143;-72
2023/05/23 10:29:30;;;;;;;0.43;0.38;;;13.50;99.90;;;;;;5113749;28;20051;-74
2023/05/23 10:31:57;;;;;;;1.05;1.02;;;12.90;99.90;;;;;;5114081;27;20056;-70
2023/05/23 10:34:48;;;;;;;0.10;0.10;;;13.20;99.90;;;;;;5096034;28;20078;-75
2023/05/23 10:37:28;;;;;;;2.88;2.65;;;12.80;99.90;;;;;;5114322;28;20043;-76
2023/05/23 10:40:12;;;;;;;0.98;0.52;;;12.50;99.90;;;;;;5113424;28;20071;-72
2023/05/23 10:43:04;;;;;;;4.60;1.00;;;12.80;99.90;;;;;;5096300;28;20048;-68
2023/05/23 10:45:38;;;;;;;12.40;4.93;;;12.80;99.90;;;;;;5095534;28;20047;-73
2023/05/23 10:48:21;;;;;;;4.97;1.65;;;12.80;99.90;;;;;;5113194;28;20491;-72
2023/05/23 10:51:05;;;;;;;0.52;0.32;;;12.50;99.90;;;;;;5113894;28;20131;-76
2023/05/23 10:53:41;;;;;;;2.33;0.68;;;12.70;99.90;;;;;;5094999;28;20059;-74
2023/05/23 10:56:09;;;;;;;0.38;0.38;;;12.80;99.90;;;;;;5113551;28;20048;-73
2023/05/23 10:58:38;;;;;;;0.30;0.30;;;12.50;99.90;;;;;;5095003;28;20066;-73
2023/05/23 11:01:08;;;;;;;0.40;0.40;;;11.50;99.90;;;;;;5113596;28;20052;-74
2023/05/23 11:03:48;;;;;;;0.20;0.20;;;12.70;99.90;;;;;;5113540;28;20083;-72
2023/05/23 11:06:37;;;;;;;0.50;0.50;;;12.60;99.90;;;;;;5094997;28;20043;-72
2023/05/23 11:09:09;;;;;;;2.50;0.85;;;13.10;99.90;;;;;;5112916;28;20050;-74
2023/05/23 11:11:53;;;;;;;0.43;0.43;;;13.10;99.90;;;;;;5113252;28;20054;-71
2023/05/23 11:14:45;;;;;;;0.35;0.35;;;13.20;99.90;;;;;;5112760;28;20345;-73
2023/05/23 11:17:15;;;;;;;0.55;0.55;;;12.80;99.90;;;;;;5099350;27;20048;-69
2023/05/23 11:20:06;;;;;;;2.53;1.55;;;13.10;99.90;;;;;;5112733;28;20044;-71
2023/05/23 11:22:32;;;;;;;0.75;0.73;;;13.10;99.90;;;;;;5094797;28;20086;-75
2023/05/23 11:25:00;;;;;;;1.30;0.65;;;13.40;99.90;;;;;;5094657;28;20047;-70
2023/05/23 11:27:38;;;;;;;13.85;1.13;;;13.90;99.90;;;;;;5111258;28;20063;-78
2023/05/23 11:30:12;;;;;;;0.20;0.20;;;14.30;99.90;;;;;;5095358;28;20055;-75
2023/05/23 11:32:38;;;;;;;1.27;1.17;;;14.10;99.90;;;;;;5112049;28;20048;-73
2023/05/23 11:35:06;;;;;;;0.65;0.43;;;14.00;99.90;;;;;;5113084;28;20054;-71
2023/05/23 11:37:32;;;;;;;0.60;0.50;;;13.80;99.90;;;;;;5111620;28;20071;-76
2023/05/23 11:39:58;;;;;;;2.35;1.20;;;13.90;99.90;;;;;;5127757;27;20095;-70
2023/05/23 11:42:24;;;;;;;;;;;13.90;99.90;;;;;;5108752;28;20056;-68
2023/05/23 11:44:51;;;;;;;0.40;0.40;;;14.10;99.90;;;;;;5111355;28;19923;-70
2023/05/23 11:47:17;;;;;;;4.80;1.38;;;13.90;99.90;;;;;;5131049;27;20437;-73
2023/05/23 11:49:48;;;;;;;0.25;0.25;;;13.90;99.90;;;;;;5132740;27;20051;-78
2023/05/23 11:52:14;;;;;;;0.93;0.77;;;14.10;99.90;;;;;;5132733;27;20043;-70
2023/05/23 11:54:43;;;;;;;0.20;0.20;;;13.90;99.90;;;;;;5132712;27;20043;-74
2023/05/23 11:57:09;;;;;;;0.40;0.40;;;13.90;99.90;;;;;;5132789;27;20436;-68
2023/05/23 11:59:36;;;;;;;0.15;0.15;;;13.80;99.90;;;;;;5133405;27;20103;-72
2023/05/23 12:02:05;;;;;;;2.33;0.98;;;13.30;99.90;;;;;;5132876;27;20047;-71
2023/05/23 12:04:30;;;;;;;3.90;0.85;;;13.90;99.90;;;;;;5132912;27;20050;-74
2023/05/23 12:06:56;;;;;;;0.38;0.38;;;13.90;99.90;;;;;;5096576;27;20661;-76
2023/05/23 12:09:22;;;;;;;;;;;14.20;99.90;;;;;;5132293;27;20120;-69
2023/05/23 12:11:48;;;;;;;0.13;0.13;;;14.60;99.90;;;;;;5132882;27;20428;-71
2023/05/23 12:14:15;;;;;;;0.88;0.88;;;14.00;99.90;;;;;;5132875;27;20058;-76
2023/05/23 12:16:46;;;;;;;0.17;0.17;;;13.90;99.90;;;;;;5132827;27;20047;-71
2023/05/23 12:19:14;;;;;;;2.67;0.85;;;14.20;99.90;;;;;;5132781;27;20039;-71
2023/05/23 12:21:47;;;;;;;0.10;0.10;;;14.10;99.90;;;;;;5132677;27;20058;-70
2023/05/23 12:24:21;;;;;;;1.30;1.20;;;14.00;99.90;;;;;;5133013;27;20066;-69
2023/05/23 12:26:53;;;;;;;0.30;0.30;;;14.10;99.90;;;;;;5132525;27;20059;-73
2023/05/23 12:29:31;;;;;;;2.05;0.73;;;14.50;99.90;;;;;;5132721;27;20047;-76
2023/05/23 12:32:00;;;;;;;0.45;0.45;;;14.40;99.90;;;;;;5114660;28;20047;-73
2023/05/23 12:34:26;;;;;;;0.57;0.57;;;14.90;99.90;;;;;;5132398;28;20123;-75
2023/05/23 12:36:58;;;;;;;;;;;14.70;99.90;;;;;;5133294;28;20055;-73
2023/05/23 12:39:28;;;;;;;7.05;1.75;;;14.60;99.90;;;;;;5097325;28;19930;-66
2023/05/23 12:41:57;;;;;;;0.55;0.55;;;14.30;99.90;;;;;;5132713;28;20419;-72
2023/05/23 12:44:22;;;;;;;0.28;0.28;;;14.40;99.90;;;;;;5118498;27;20111;-70
2023/05/23 12:46:48;;;;;;;;;;;14.10;99.90;;;;;;5136948;27;20387;-69
2023/05/23 12:49:14;;;;;;;0.35;0.35;;;14.30;99.90;;;;;;5136855;27;19982;-75
2023/05/23 12:51:39;;;;;;;;;;;14.40;99.90;;;;;;5137410;27;20047;-71
2023/05/23 12:54:07;;;;;;;0.15;0.15;;;13.90;99.90;;;;;;5136552;27;20449;-67
2023/05/23 12:56:33;;;;;;;0.10;0.10;;;14.00;99.90;;;;;;5136615;27;20130;-73